Disclaimer

Please do not use the information listed here in-flight or in-navigation, as they are not provided to us by the airports but are provided by volunteers, so they might be outdated.

Search


Regions


Airport information page

Radio informations:
DEAUVILLE TWR - 118.3 MHz
DEAUVILLE INFO - 119.825 MHz
Automatic Terminal Information Service (ATIS) - 136.15 MHz
DEAUVILLE APP - 120.35 MHz

Airport informations:
Latitude: 49° 21' 55.22" N
Longitude: 000° 09' 15.50" E
Elevation: 479 feet - 146 meters
Operating hours: Remarks
Operating agency: Civil government, landing fees and diplomatic clearance may be required
Timezone: UTC+1(+2DT) - Last Sunday in March to last Sunday in October
Fuel: Jet A1, without icing nhibitor.

100/130 MIL Spec, low lead, aviation gasoline (BLUE)

Runway information:
12/30 - 8366 x 148 feet< - >2550 x 45 meters

Recent METARs:
LFRG 202300Z AUTO 18006KT 3300 BR FEW005 M01/M02 Q1005
LFRG 202330Z AUTO 17007KT 4200 BR NSC M01/M01 Q1005
LFRG 210000Z AUTO 16007KT 4000 BR NSC M01/M01 Q1005

Airport on the map: